Time;durP1;ratioP1;P1;durP2;ratioP2;P2;SDS_P1;SDS_P2;PMS_P1;PMS_P2;Temp;Humidity;BMP_temperature;BMP_pressure;BME280_temperature;BME280_humidity;BME280_pressure;Samples;Min_cycle;Max_cycle;Signal;HPM_P1;HPM_P2
2022/12/28 00:01:04;;;;;;;10.90;3.80;;;;;;;;;;5125041;27;20051;-76
2022/12/28 00:03:30;;;;;;;9.60;3.88;;;;;;;;;;5113184;28;20046;-77
2022/12/28 00:05:57;;;;;;;14.93;4.38;;;;;;;;;;5109628;27;20047;-76
2022/12/28 00:08:23;;;;;;;13.50;4.20;;;;;;;;;;5099413;28;20040;-76
2022/12/28 00:10:49;;;;;;;17.90;4.53;;;;;;;;;;5105259;28;20047;-76
2022/12/28 00:13:15;;;;;;;11.50;4.25;;;;;;;;;;5109458;28;20089;-76
2022/12/28 00:15:41;;;;;;;12.23;4.45;;;;;;;;;;5098196;28;20064;-76
2022/12/28 00:18:07;;;;;;;10.98;4.32;;;;;;;;;;5107895;28;20039;-76
2022/12/28 00:20:33;;;;;;;11.65;4.15;;;;;;;;;;5096045;28;20043;-76
2022/12/28 00:22:59;;;;;;;11.45;4.43;;;;;;;;;;5093565;28;20078;-76
2022/12/28 00:25:25;;;;;;;15.10;4.97;;;;;;;;;;5097653;28;20051;-76
2022/12/28 00:27:51;;;;;;;14.02;4.88;;;;;;;;;;5092409;28;20044;-76
2022/12/28 00:30:17;;;;;;;15.15;4.90;;;;;;;;;;5106277;28;20050;-77
2022/12/28 00:32:43;;;;;;;12.77;5.13;;;;;;;;;;5105541;28;20108;-77
2022/12/28 00:35:09;;;;;;;13.40;4.97;;;;;;;;;;5109497;28;20046;-78
2022/12/28 00:37:35;;;;;;;12.00;4.68;;;;;;;;;;5111311;28;20046;-76
2022/12/28 00:40:01;;;;;;;11.95;4.97;;;;;;;;;;5112061;28;20040;-76
2022/12/28 00:42:27;;;;;;;14.30;5.35;;;;;;;;;;5113302;28;20052;-77
2022/12/28 00:44:53;;;;;;;11.02;4.38;;;;;;;;;;5119154;28;20043;-76
2022/12/28 00:47:19;;;;;;;11.50;4.72;;;;;;;;;;5133816;27;20039;-76
2022/12/28 00:49:45;;;;;;;13.55;5.18;;;;;;;;;;5107716;27;20043;-76
2022/12/28 00:52:11;;;;;;;11.45;4.57;;;;;;;;;;5110518;28;20040;-76
2022/12/28 00:54:37;;;;;;;14.23;4.90;;;;;;;;;;5104656;28;20100;-76
2022/12/28 00:57:03;;;;;;;14.80;5.15;;;;;;;;;;5108779;28;20043;-77
2022/12/28 00:59:30;;;;;;;9.70;4.53;;;;;;;;;;5109494;28;20044;-77
2022/12/28 01:01:56;;;;;;;12.73;4.80;;;;;;;;;;5094407;28;20506;-76
2022/12/28 01:04:22;;;;;;;12.75;5.35;;;;;;;;;;5103301;28;20496;-77
2022/12/28 01:06:48;;;;;;;12.07;5.05;;;;;;;;;;5106015;28;20051;-77
2022/12/28 01:09:14;;;;;;;9.68;4.28;;;;;;;;;;5108756;28;20047;-76
2022/12/28 01:11:40;;;;;;;14.27;5.50;;;;;;;;;;5111801;28;20040;-77
2022/12/28 01:14:06;;;;;;;10.70;4.97;;;;;;;;;;5111645;28;20047;-77
2022/12/28 01:16:36;;;;;;;13.18;5.32;;;;;;;;;;5096974;28;20043;-77
2022/12/28 01:19:03;;;;;;;10.88;5.07;;;;;;;;;;5100389;28;20374;-77
2022/12/28 01:21:30;;;;;;;16.77;4.88;;;;;;;;;;5113096;28;20043;-77
2022/12/28 01:23:58;;;;;;;12.82;5.03;;;;;;;;;;5111958;28;20497;-77
2022/12/28 01:26:25;;;;;;;10.32;5.15;;;;;;;;;;5108379;28;20039;-77
2022/12/28 01:28:51;;;;;;;12.77;4.88;;;;;;;;;;5109856;28;20108;-77
2022/12/28 01:31:18;;;;;;;11.18;4.72;;;;;;;;;;5108282;28;20493;-77
2022/12/28 01:33:44;;;;;;;12.95;5.22;;;;;;;;;;5099565;28;20503;-77
2022/12/28 01:36:13;;;;;;;11.57;5.22;;;;;;;;;;5109762;28;20055;-77
2022/12/28 01:38:39;;;;;;;9.63;5.15;;;;;;;;;;5107155;28;20093;-77
2022/12/28 01:41:09;;;;;;;12.15;5.38;;;;;;;;;;5093018;28;20036;-77
2022/12/28 01:43:43;;;;;;;11.57;5.47;;;;;;;;;;5107472;28;20528;-77
2022/12/28 01:46:29;;;;;;;12.95;5.30;;;;;;;;;;5112155;27;20035;-76
2022/12/28 01:49:09;;;;;;;12.15;5.43;;;;;;;;;;5112428;28;20051;-77
2022/12/28 01:52:01;;;;;;;11.80;5.18;;;;;;;;;;5098592;28;20083;-77
2022/12/28 01:54:29;;;;;;;12.80;5.38;;;;;;;;;;5081233;27;20052;-77
2022/12/28 01:56:55;;;;;;;10.65;5.20;;;;;;;;;;5100143;28;20040;-77
2022/12/28 01:59:24;;;;;;;12.18;5.75;;;;;;;;;;5109163;28;20044;-77
2022/12/28 02:01:50;;;;;;;13.60;5.57;;;;;;;;;;5100816;28;20052;-77
2022/12/28 02:04:16;;;;;;;10.98;5.43;;;;;;;;;;5096513;28;20502;-77
2022/12/28 02:06:43;;;;;;;13.23;5.53;;;;;;;;;;5097880;28;20035;-77
2022/12/28 02:09:11;;;;;;;12.38;5.63;;;;;;;;;;5108328;27;20039;-77
2022/12/28 02:11:37;;;;;;;13.25;5.18;;;;;;;;;;5094992;28;20043;-77
2022/12/28 02:14:04;;;;;;;12.73;5.32;;;;;;;;;;5098400;27;20077;-76
2022/12/28 02:16:30;;;;;;;11.90;5.22;;;;;;;;;;5107177;28;20053;-77
2022/12/28 02:18:56;;;;;;;13.30;5.15;;;;;;;;;;5097290;28;20063;-76
2022/12/28 02:21:50;;;;;;;14.50;5.35;;;;;;;;;;5095716;28;20040;-76
2022/12/28 02:24:30;;;;;;;10.65;4.88;;;;;;;;;;5109117;27;20044;-77
2022/12/28 02:27:07;;;;;;;14.40;5.03;;;;;;;;;;5113792;27;21849;-76
2022/12/28 02:29:39;;;;;;;12.60;5.50;;;;;;;;;;5102730;28;20074;-77
2022/12/28 02:32:08;;;;;;;13.68;5.35;;;;;;;;;;5107853;28;20039;-77
2022/12/28 02:34:37;;;;;;;12.77;4.95;;;;;;;;;;5110197;28;20393;-77
2022/12/28 02:37:08;;;;;;;13.15;5.22;;;;;;;;;;5107541;28;20065;-77
2022/12/28 02:39:38;;;;;;;13.45;5.60;;;;;;;;;;5111953;27;20118;-77
2022/12/28 02:42:08;;;;;;;12.05;5.53;;;;;;;;;;5113518;28;20056;-77
2022/12/28 02:50:06;;;;;;;16.10;5.60;;;;;;;;;;5108086;28;20052;-77
2022/12/28 02:52:51;;;;;;;12.35;5.95;;;;;;;;;;5105695;28;20513;-77
2022/12/28 02:58:13;;;;;;;15.25;6.45;;;;;;;;;;5123568;27;20040;-77
2022/12/28 03:00:49;;;;;;;14.82;6.50;;;;;;;;;;5096584;28;20460;-77
2022/12/28 03:03:21;;;;;;;13.98;5.78;;;;;;;;;;5094402;28;20092;-77
2022/12/28 03:09:09;;;;;;;13.82;6.57;;;;;;;;;;5093827;28;20494;-77
2022/12/28 03:11:39;;;;;;;11.40;6.47;;;;;;;;;;5103491;28;20058;-77
2022/12/28 03:14:07;;;;;;;16.15;7.10;;;;;;;;;;5102748;28;20048;-77
2022/12/28 03:33:10;;;;;;;14.35;7.18;;;;;;;;;;5110047;28;20082;-77
2022/12/28 03:35:45;;;;;;;10.73;7.15;;;;;;;;;;5116552;27;20043;-77
2022/12/28 03:38:13;;;;;;;11.80;6.38;;;;;;;;;;5107759;28;20386;-77
2022/12/28 03:40:47;;;;;;;11.73;6.65;;;;;;;;;;5111662;28;20044;-77
2022/12/28 03:46:14;;;;;;;15.55;7.35;;;;;;;;;;5112345;28;20047;-77
2022/12/28 03:48:41;;;;;;;14.90;7.18;;;;;;;;;;5106791;28;20045;-77
2022/12/28 03:51:07;;;;;;;11.75;7.57;;;;;;;;;;5101226;28;20040;-77
2022/12/28 03:53:51;;;;;;;14.60;7.30;;;;;;;;;;5095399;28;20043;-77
2022/12/28 03:56:19;;;;;;;12.80;7.60;;;;;;;;;;5112077;28;20036;-77
2022/12/28 03:58:45;;;;;;;12.50;7.35;;;;;;;;;;5112505;27;20378;-77
2022/12/28 04:01:11;;;;;;;15.10;7.68;;;;;;;;;;5094083;28;20502;-77
2022/12/28 04:03:38;;;;;;;12.93;7.75;;;;;;;;;;5091789;28;20056;-76
2022/12/28 04:06:05;;;;;;;14.60;7.85;;;;;;;;;;5107273;28;20047;-77
2022/12/28 04:08:32;;;;;;;16.02;7.20;;;;;;;;;;5094068;28;20412;-77
2022/12/28 04:10:59;;;;;;;10.95;6.93;;;;;;;;;;5111328;28;20044;-77
2022/12/28 04:13:27;;;;;;;12.60;7.25;;;;;;;;;;5106240;28;20126;-76
2022/12/28 04:16:01;;;;;;;11.80;7.00;;;;;;;;;;5111412;28;20497;-77
2022/12/28 04:18:27;;;;;;;12.07;7.03;;;;;;;;;;5102917;28;20044;-77
2022/12/28 04:20:54;;;;;;;13.65;6.47;;;;;;;;;;5105209;28;20060;-77
2022/12/28 04:23:20;;;;;;;12.52;6.30;;;;;;;;;;5107908;28;20393;-77
2022/12/28 04:25:56;;;;;;;12.77;6.30;;;;;;;;;;5108610;28;20035;-77
2022/12/28 04:28:22;;;;;;;11.75;5.10;;;;;;;;;;5110709;28;20043;-77
2022/12/28 04:30:48;;;;;;;11.68;5.88;;;;;;;;;;5101492;28;20123;-77
2022/12/28 04:33:14;;;;;;;11.93;5.72;;;;;;;;;;5108173;28;20036;-77
2022/12/28 04:35:40;;;;;;;10.30;5.72;;;;;;;;;;5116135;27;20040;-77
2022/12/28 04:38:06;;;;;;;11.60;5.55;;;;;;;;;;5111327;28;20054;-77
2022/12/28 04:40:32;;;;;;;10.63;5.03;;;;;;;;;;5112252;28;20054;-77
2022/12/28 04:42:59;;;;;;;9.40;5.32;;;;;;;;;;5107708;28;20558;-77
2022/12/28 04:45:25;;;;;;;10.70;5.38;;;;;;;;;;5122998;27;20047;-78
2022/12/28 04:47:51;;;;;;;10.88;4.90;;;;;;;;;;5110943;27;20055;-77
2022/12/28 04:50:17;;;;;;;10.32;5.03;;;;;;;;;;5104243;28;20040;-77
2022/12/28 04:52:43;;;;;;;10.40;5.03;;;;;;;;;;5111094;28;20039;-77
2022/12/28 04:55:09;;;;;;;10.25;4.40;;;;;;;;;;5116458;27;20046;-77
2022/12/28 04:57:35;;;;;;;10.32;5.20;;;;;;;;;;5096830;27;20052;-77
2022/12/28 05:00:01;;;;;;;9.90;5.25;;;;;;;;;;5102394;28;20039;-77
2022/12/28 05:02:27;;;;;;;9.10;5.70;;;;;;;;;;5112516;28;20063;-77
2022/12/28 05:04:53;;;;;;;9.00;5.00;;;;;;;;;;5105462;28;20043;-77
2022/12/28 05:07:19;;;;;;;10.60;5.63;;;;;;;;;;5106807;28;20494;-77
2022/12/28 05:09:45;;;;;;;8.85;5.07;;;;;;;;;;5109865;28;20494;-77
2022/12/28 05:12:11;;;;;;;10.07;5.53;;;;;;;;;;5107971;28;20436;-77
2022/12/28 05:14:41;;;;;;;9.68;5.55;;;;;;;;;;5095605;28;20040;-77
2022/12/28 05:17:07;;;;;;;7.32;4.88;;;;;;;;;;5127950;28;20084;-77
2022/12/28 05:19:33;;;;;;;8.45;4.88;;;;;;;;;;5105438;27;20063;-77
2022/12/28 05:21:59;;;;;;;7.90;4.97;;;;;;;;;;5101919;28;20130;-77
2022/12/28 05:24:25;;;;;;;8.98;4.95;;;;;;;;;;5123061;28;20051;-77
2022/12/28 05:26:51;;;;;;;9.50;5.28;;;;;;;;;;5107343;28;20705;-77
2022/12/28 05:29:17;;;;;;;7.45;5.00;;;;;;;;;;5098636;28;20075;-77
2022/12/28 05:31:43;;;;;;;8.27;4.65;;;;;;;;;;5105034;28;20040;-77
2022/12/28 05:34:09;;;;;;;8.18;5.30;;;;;;;;;;5100593;28;20047;-77
2022/12/28 05:36:36;;;;;;;8.48;5.13;;;;;;;;;;5102766;28;20048;-77
2022/12/28 05:39:03;;;;;;;6.53;4.85;;;;;;;;;;5110258;28;20124;-77
2022/12/28 05:41:29;;;;;;;8.32;5.57;;;;;;;;;;5095491;28;20127;-76
2022/12/28 05:43:57;;;;;;;9.18;5.97;;;;;;;;;;5096418;28;20064;-77
2022/12/28 05:46:25;;;;;;;8.02;5.10;;;;;;;;;;5109136;27;20046;-77
2022/12/28 05:48:51;;;;;;;10.77;6.10;;;;;;;;;;5095237;28;20623;-77
2022/12/28 05:51:18;;;;;;;13.45;6.38;;;;;;;;;;5108168;28;20471;-77
2022/12/28 05:53:44;;;;;;;8.43;6.28;;;;;;;;;;5095668;28;20036;-77
2022/12/28 05:56:12;;;;;;;8.52;5.38;;;;;;;;;;5110850;28;20040;-77
2022/12/28 05:58:38;;;;;;;8.57;6.50;;;;;;;;;;5102537;28;20051;-77
2022/12/28 06:01:09;;;;;;;9.32;5.70;;;;;;;;;;5110247;28;20050;-77
2022/12/28 06:03:36;;;;;;;9.15;5.95;;;;;;;;;;5113632;28;20123;-77
2022/12/28 06:06:03;;;;;;;8.70;6.10;;;;;;;;;;5099774;28;20046;-77
2022/12/28 06:08:29;;;;;;;8.43;5.93;;;;;;;;;;5113379;28;20043;-77
2022/12/28 06:10:59;;;;;;;8.75;5.97;;;;;;;;;;5105838;28;20502;-77
2022/12/28 06:13:25;;;;;;;8.75;6.07;;;;;;;;;;5110695;28;20082;-77
2022/12/28 06:15:51;;;;;;;7.50;5.47;;;;;;;;;;5103439;28;20036;-77
2022/12/28 06:18:17;;;;;;;9.80;7.00;;;;;;;;;;5106272;28;20489;-77
2022/12/28 06:20:43;;;;;;;10.65;6.80;;;;;;;;;;5102520;28;20517;-77
2022/12/28 06:23:09;;;;;;;9.88;6.38;;;;;;;;;;5095928;28;20444;-77
2022/12/28 06:25:36;;;;;;;9.45;6.88;;;;;;;;;;5099253;28;20044;-78
2022/12/28 06:28:03;;;;;;;10.38;7.60;;;;;;;;;;5102933;28;20043;-77
2022/12/28 06:30:29;;;;;;;9.98;7.15;;;;;;;;;;5113110;28;20044;-76
2022/12/28 06:32:58;;;;;;;8.77;6.35;;;;;;;;;;5111412;27;20040;-77
2022/12/28 06:35:24;;;;;;;9.75;6.72;;;;;;;;;;5104318;28;20044;-77
2022/12/28 06:37:50;;;;;;;11.43;7.20;;;;;;;;;;5114789;28;20048;-77
2022/12/28 06:40:16;;;;;;;9.77;7.47;;;;;;;;;;5113309;28;20055;-77
2022/12/28 06:42:42;;;;;;;10.77;7.47;;;;;;;;;;5114974;28;20101;-77
2022/12/28 06:45:08;;;;;;;11.18;6.82;;;;;;;;;;5115798;28;20044;-77
2022/12/28 06:47:35;;;;;;;11.25;7.60;;;;;;;;;;5104114;27;20626;-77
2022/12/28 06:50:02;;;;;;;11.75;7.90;;;;;;;;;;5116761;28;20485;-77
2022/12/28 06:52:28;;;;;;;9.60;7.07;;;;;;;;;;5122994;27;20043;-77
2022/12/28 06:54:54;;;;;;;10.98;7.30;;;;;;;;;;5111799;28;20043;-77
2022/12/28 06:57:20;;;;;;;10.68;7.35;;;;;;;;;;5113310;28;20047;-77
2022/12/28 06:59:46;;;;;;;10.75;8.18;;;;;;;;;;5110259;27;20051;-77
2022/12/28 07:02:12;;;;;;;9.98;7.10;;;;;;;;;;5109674;28;20059;-78
2022/12/28 07:04:38;;;;;;;11.05;8.23;;;;;;;;;;5102947;28;20092;-78
2022/12/28 07:07:04;;;;;;;10.93;7.85;;;;;;;;;;5098813;28;20039;-77
2022/12/28 07:09:30;;;;;;;9.80;7.35;;;;;;;;;;5106337;28;20067;-77
2022/12/28 07:11:56;;;;;;;9.27;7.38;;;;;;;;;;5102968;28;20044;-77
2022/12/28 07:14:22;;;;;;;10.65;7.43;;;;;;;;;;5114434;28;20047;-77
2022/12/28 07:16:48;;;;;;;12.00;8.10;;;;;;;;;;5107468;27;20040;-78
2022/12/28 07:19:14;;;;;;;10.15;8.02;;;;;;;;;;5117224;27;20032;-77
2022/12/28 07:21:41;;;;;;;10.52;8.30;;;;;;;;;;5096865;28;20040;-77
2022/12/28 07:24:07;;;;;;;12.23;8.60;;;;;;;;;;5095891;28;20039;-77
2022/12/28 07:26:34;;;;;;;10.55;7.97;;;;;;;;;;5111323;28;20036;-77
2022/12/28 07:29:01;;;;;;;12.25;9.10;;;;;;;;;;5097487;28;20067;-78
2022/12/28 07:31:29;;;;;;;11.82;9.68;;;;;;;;;;5110035;28;20124;-78
2022/12/28 07:33:56;;;;;;;13.07;9.05;;;;;;;;;;5095816;28;20051;-78
2022/12/28 07:36:22;;;;;;;11.20;9.35;;;;;;;;;;5100566;28;20048;-77
2022/12/28 07:38:49;;;;;;;11.25;9.10;;;;;;;;;;5100258;28;20039;-77
2022/12/28 07:41:16;;;;;;;13.15;10.63;;;;;;;;;;5111250;28;20039;-77
2022/12/28 07:43:42;;;;;;;12.93;10.95;;;;;;;;;;5109952;28;20378;-77
2022/12/28 07:46:10;;;;;;;13.00;10.57;;;;;;;;;;5107300;27;20086;-77
2022/12/28 07:48:36;;;;;;;13.65;10.23;;;;;;;;;;5095874;27;20444;-77
2022/12/28 07:51:22;;;;;;;12.65;10.40;;;;;;;;;;5104931;28;20067;-77
2022/12/28 07:53:49;;;;;;;14.95;11.30;;;;;;;;;;5105367;28;20420;-77
2022/12/28 07:56:16;;;;;;;15.13;12.25;;;;;;;;;;5103755;28;20043;-77
2022/12/28 07:58:44;;;;;;;14.82;11.73;;;;;;;;;;5092764;28;20498;-78
2022/12/28 08:01:11;;;;;;;16.42;12.88;;;;;;;;;;5099208;28;20055;-77
2022/12/28 08:03:38;;;;;;;15.73;11.43;;;;;;;;;;5108127;28;20051;-77
2022/12/28 08:06:05;;;;;;;15.30;12.00;;;;;;;;;;5094413;28;20490;-77
2022/12/28 08:08:33;;;;;;;16.83;12.93;;;;;;;;;;5094053;28;20173;-77
2022/12/28 08:11:01;;;;;;;18.45;13.95;;;;;;;;;;5104607;28;20040;-78
2022/12/28 08:13:30;;;;;;;18.33;13.25;;;;;;;;;;5105433;28;20053;-77
2022/12/28 08:15:56;;;;;;;15.43;12.48;;;;;;;;;;5110887;28;20512;-77
2022/12/28 08:18:22;;;;;;;19.70;12.35;;;;;;;;;;5098118;28;20070;-78
2022/12/28 08:20:49;;;;;;;15.73;12.13;;;;;;;;;;5112338;28;20055;-78
2022/12/28 08:23:15;;;;;;;14.68;12.90;;;;;;;;;;5099952;28;20048;-77
2022/12/28 08:25:41;;;;;;;18.92;13.85;;;;;;;;;;5092618;28;20055;-78
2022/12/28 08:28:07;;;;;;;16.40;12.85;;;;;;;;;;5092872;28;20044;-78
2022/12/28 08:30:34;;;;;;;18.70;14.80;;;;;;;;;;5093552;28;20414;-78
2022/12/28 08:33:00;;;;;;;16.98;13.80;;;;;;;;;;5098617;28;20044;-78
2022/12/28 08:35:26;;;;;;;18.25;13.93;;;;;;;;;;5112902;28;20047;-78
2022/12/28 08:37:54;;;;;;;16.58;12.88;;;;;;;;;;5113118;28;20051;-78
2022/12/28 08:40:21;;;;;;;17.20;12.20;;;;;;;;;;5104122;28;20058;-78
2022/12/28 08:42:47;;;;;;;17.17;13.98;;;;;;;;;;5111770;28;20443;-78
2022/12/28 08:45:13;;;;;;;13.20;10.63;;;;;;;;;;5112302;28;20039;-78
2022/12/28 08:47:39;;;;;;;14.65;11.57;;;;;;;;;;5113013;28;20048;-78
2022/12/28 08:50:06;;;;;;;16.63;11.98;;;;;;;;;;5111061;28;20521;-77
2022/12/28 08:52:32;;;;;;;13.88;10.82;;;;;;;;;;5111582;28;20051;-77
2022/12/28 08:54:58;;;;;;;12.50;10.55;;;;;;;;;;5112590;28;20048;-78
2022/12/28 08:57:24;;;;;;;12.27;10.30;;;;;;;;;;5100992;27;20059;-77
2022/12/28 08:59:50;;;;;;;14.05;9.95;;;;;;;;;;5112946;28;20055;-77
2022/12/28 09:02:16;;;;;;;12.30;9.57;;;;;;;;;;5117207;28;20051;-78
2022/12/28 09:04:42;;;;;;;13.90;9.05;;;;;;;;;;5107311;28;20460;-77
2022/12/28 09:07:08;;;;;;;10.70;8.95;;;;;;;;;;5114477;27;20048;-78
2022/12/28 09:09:34;;;;;;;10.40;9.27;;;;;;;;;;5109398;28;20051;-78
2022/12/28 09:12:00;;;;;;;10.35;9.02;;;;;;;;;;5107578;28;20374;-78
2022/12/28 09:14:26;;;;;;;10.98;8.73;;;;;;;;;;5110793;28;20451;-78
2022/12/28 09:16:53;;;;;;;12.10;8.95;;;;;;;;;;5115306;28;20088;-78
2022/12/28 09:19:19;;;;;;;12.45;9.90;;;;;;;;;;5116473;28;20044;-78
2022/12/28 09:21:47;;;;;;;12.63;9.75;;;;;;;;;;5108747;27;20044;-78
2022/12/28 09:24:14;;;;;;;11.00;9.60;;;;;;;;;;5094982;28;20094;-78
2022/12/28 09:26:40;;;;;;;13.65;11.23;;;;;;;;;;5100547;28;20489;-78
2022/12/28 09:29:07;;;;;;;12.10;9.95;;;;;;;;;;5115798;28;20054;-78
2022/12/28 09:31:39;;;;;;;11.35;8.88;;;;;;;;;;5116152;28;20054;-77
2022/12/28 09:34:06;;;;;;;10.25;8.77;;;;;;;;;;5113659;27;20044;-78
2022/12/28 09:36:35;;;;;;;10.43;8.90;;;;;;;;;;5106176;28;20050;-77
2022/12/28 09:39:06;;;;;;;11.13;8.82;;;;;;;;;;5114587;28;20059;-78
2022/12/28 09:41:32;;;;;;;11.63;8.98;;;;;;;;;;5116430;28;20497;-78
2022/12/28 09:44:16;;;;;;;11.77;8.63;;;;;;;;;;5116254;28;20062;-77
2022/12/28 09:46:51;;;;;;;11.50;9.20;;;;;;;;;;5113933;28;20126;-78
2022/12/28 09:49:18;;;;;;;10.95;8.25;;;;;;;;;;5109311;27;20083;-77
2022/12/28 09:52:05;;;;;;;10.68;8.35;;;;;;;;;;5107955;28;20083;-77
2022/12/28 09:54:31;;;;;;;10.82;8.70;;;;;;;;;;5112549;27;20374;-77
2022/12/28 09:56:57;;;;;;;10.05;8.07;;;;;;;;;;5109631;28;20044;-78
2022/12/28 09:59:24;;;;;;;12.88;9.00;;;;;;;;;;5099236;28;20052;-77
2022/12/28 10:01:58;;;;;;;11.13;8.65;;;;;;;;;;5115438;28;20127;-78
2022/12/28 10:04:24;;;;;;;12.65;8.93;;;;;;;;;;5114826;28;20119;-78
2022/12/28 10:06:50;;;;;;;11.70;9.85;;;;;;;;;;5114119;28;20039;-78
2022/12/28 10:09:21;;;;;;;11.77;9.90;;;;;;;;;;5115827;28;20413;-78
2022/12/28 10:11:47;;;;;;;13.45;9.30;;;;;;;;;;5116153;28;20446;-78
2022/12/28 10:14:17;;;;;;;11.77;9.98;;;;;;;;;;5115305;28;20044;-78
2022/12/28 10:16:43;;;;;;;13.23;9.85;;;;;;;;;;5099345;28;20044;-77
2022/12/28 10:19:10;;;;;;;11.30;9.63;;;;;;;;;;5095293;28;20066;-78
2022/12/28 10:21:36;;;;;;;11.80;9.27;;;;;;;;;;5106578;28;20040;-78
2022/12/28 10:24:05;;;;;;;12.45;9.55;;;;;;;;;;5114774;28;20044;-78
2022/12/28 10:26:32;;;;;;;12.63;8.90;;;;;;;;;;5116201;28;20172;-77
2022/12/28 10:29:00;;;;;;;11.10;9.23;;;;;;;;;;5109198;27;20054;-77
2022/12/28 10:31:33;;;;;;;12.43;8.73;;;;;;;;;;5095353;28;20044;-78
2022/12/28 10:34:00;;;;;;;10.15;8.40;;;;;;;;;;5105697;28;20050;-78
2022/12/28 10:36:31;;;;;;;10.63;8.50;;;;;;;;;;5114932;27;20074;-77
2022/12/28 10:38:58;;;;;;;9.93;7.88;;;;;;;;;;5121282;27;20043;-78
2022/12/28 10:41:32;;;;;;;12.35;8.25;;;;;;;;;;5130543;27;20548;-77
2022/12/28 10:43:58;;;;;;;11.25;8.13;;;;;;;;;;5109099;28;20062;-77
2022/12/28 10:46:24;;;;;;;10.48;6.93;;;;;;;;;;5095443;28;20497;-78
2022/12/28 10:48:55;;;;;;;9.65;6.65;;;;;;;;;;5105358;28;20528;-78
2022/12/28 10:51:23;;;;;;;9.17;7.23;;;;;;;;;;5100836;28;20509;-77
2022/12/28 10:53:51;;;;;;;8.98;7.25;;;;;;;;;;5108393;28;20052;-77
2022/12/28 10:56:43;;;;;;;9.55;6.78;;;;;;;;;;5106047;27;20047;-77
2022/12/28 10:59:09;;;;;;;8.45;6.20;;;;;;;;;;5094349;28;20073;-77
2022/12/28 11:01:35;;;;;;;8.60;6.80;;;;;;;;;;5094507;28;20444;-78
2022/12/28 11:04:06;;;;;;;8.75;6.28;;;;;;;;;;5113984;27;20055;-78
2022/12/28 11:06:34;;;;;;;9.95;6.68;;;;;;;;;;5109503;28;20050;-77
2022/12/28 11:09:03;;;;;;;9.30;6.30;;;;;;;;;;5112586;28;20052;-77
2022/12/28 11:11:29;;;;;;;7.05;5.13;;;;;;;;;;5112163;28;20056;-78
2022/12/28 11:13:57;;;;;;;7.15;5.68;;;;;;;;;;5094311;28;20119;-77
2022/12/28 11:16:23;;;;;;;7.20;5.03;;;;;;;;;;5093799;28;20052;-78
2022/12/28 11:18:50;;;;;;;9.85;6.63;;;;;;;;;;5099419;28;20092;-77
2022/12/28 11:21:20;;;;;;;7.95;5.82;;;;;;;;;;5112852;28;20140;-78
2022/12/28 11:23:48;;;;;;;8.90;5.93;;;;;;;;;;5114148;28;21007;-78
2022/12/28 11:26:14;;;;;;;7.45;5.05;;;;;;;;;;5113623;28;20100;-78
2022/12/28 11:28:43;;;;;;;7.70;4.90;;;;;;;;;;5114233;28;20039;-78
2022/12/28 11:31:16;;;;;;;7.25;5.60;;;;;;;;;;5120551;27;20464;-78
2022/12/28 11:33:44;;;;;;;5.97;4.22;;;;;;;;;;5108163;27;20345;-78
2022/12/28 11:36:21;;;;;;;7.68;4.85;;;;;;;;;;5121365;27;20051;-78
2022/12/28 11:38:48;;;;;;;6.68;4.70;;;;;;;;;;5112420;28;20613;-78
2022/12/28 11:41:23;;;;;;;7.10;4.60;;;;;;;;;;5113845;28;20414;-78
2022/12/28 11:43:53;;;;;;;6.18;4.30;;;;;;;;;;5113915;28;20438;-78
2022/12/28 11:46:22;;;;;;;6.72;4.57;;;;;;;;;;5112807;28;20133;-78
2022/12/28 11:48:54;;;;;;;6.47;4.55;;;;;;;;;;5113166;28;20040;-78
2022/12/28 11:51:22;;;;;;;7.63;4.93;;;;;;;;;;5109542;28;20120;-78
2022/12/28 11:53:50;;;;;;;6.30;4.47;;;;;;;;;;5112655;28;20039;-78
2022/12/28 11:56:17;;;;;;;6.00;4.25;;;;;;;;;;5099890;28;20055;-80
2022/12/28 11:59:00;;;;;;;8.00;5.32;;;;;;;;;;5092720;28;20109;-80
2022/12/28 12:01:28;;;;;;;7.40;4.70;;;;;;;;;;5100160;28;20062;-78
2022/12/28 12:03:58;;;;;;;8.70;5.20;;;;;;;;;;5112151;28;20067;-79
2022/12/28 12:06:42;;;;;;;7.63;5.13;;;;;;;;;;5112033;27;20048;-79
2022/12/28 12:09:24;;;;;;;9.02;5.10;;;;;;;;;;5106509;27;20040;-77
2022/12/28 12:12:00;;;;;;;7.97;4.75;;;;;;;;;;5099557;27;20463;-78
2022/12/28 12:14:31;;;;;;;7.03;4.32;;;;;;;;;;5106408;27;20071;-78
2022/12/28 12:17:01;;;;;;;;;;;;;;;;;;5104767;28;20044;-78
2022/12/28 12:19:32;;;;;;;7.60;4.05;;;;;;;;;;5104760;28;19916;-73
2022/12/28 12:22:01;;;;;;;7.70;4.55;;;;;;;;;;5104971;28;20039;-73
2022/12/28 12:24:29;;;;;;;5.97;4.10;;;;;;;;;;5105155;27;20040;-72
2022/12/28 12:26:57;;;;;;;6.50;4.10;;;;;;;;;;5106941;28;20169;-72
2022/12/28 12:29:41;;;;;;;8.45;4.30;;;;;;;;;;5096767;28;20508;-72
2022/12/28 12:32:15;;;;;;;6.25;3.30;;;;;;;;;;5095354;28;20042;-73
2022/12/28 12:34:43;;;;;;;5.35;3.53;;;;;;;;;;5102555;27;20047;-72
2022/12/28 12:37:19;;;;;;;6.53;3.35;;;;;;;;;;5112240;28;20052;-73
2022/12/28 12:40:13;;;;;;;6.82;4.93;;;;;;;;;;5112552;28;20059;-72
2022/12/28 12:42:50;;;;;;;7.68;4.22;;;;;;;;;;5110400;28;20077;-72
2022/12/28 12:45:25;;;;;;;7.10;3.65;;;;;;;;;;5109502;28;20048;-72
2022/12/28 12:47:52;;;;;;;7.22;3.22;;;;;;;;;;5111485;28;20032;-72
2022/12/28 12:50:24;;;;;;;5.55;3.47;;;;;;;;;;5111946;28;20382;-73
2022/12/28 12:53:13;;;;;;;6.53;3.50;;;;;;;;;;5112028;28;20044;-73
2022/12/28 12:55:58;;;;;;;7.00;3.20;;;;;;;;;;5107660;28;20063;-73
2022/12/28 12:58:27;;;;;;;6.03;3.55;;;;;;;;;;5110113;28;20058;-73
2022/12/28 13:00:59;;;;;;;6.47;3.30;;;;;;;;;;5106169;28;20130;-73
2022/12/28 13:03:33;;;;;;;6.28;3.95;;;;;;;;;;5111491;28;20048;-73
2022/12/28 13:05:59;;;;;;;6.95;3.83;;;;;;;;;;5107466;28;20068;-73
2022/12/28 13:08:36;;;;;;;5.57;3.08;;;;;;;;;;5109576;28;20067;-72
2022/12/28 13:11:02;;;;;;;6.03;3.40;;;;;;;;;;5107875;28;21256;-73
2022/12/28 13:13:33;;;;;;;5.65;2.88;;;;;;;;;;5109623;28;20051;-72
2022/12/28 13:16:02;;;;;;;6.28;2.97;;;;;;;;;;5108944;28;20499;-72
2022/12/28 13:18:28;;;;;;;6.03;3.15;;;;;;;;;;5109480;28;20043;-73
2022/12/28 13:20:55;;;;;;;5.60;2.72;;;;;;;;;;5109035;28;20413;-73
2022/12/28 13:23:22;;;;;;;7.93;3.40;;;;;;;;;;5111826;28;20043;-73
2022/12/28 13:25:50;;;;;;;6.80;3.00;;;;;;;;;;5111454;28;20557;-72
2022/12/28 13:28:20;;;;;;;5.95;3.13;;;;;;;;;;5107046;28;20039;-72
2022/12/28 13:31:07;;;;;;;6.88;3.00;;;;;;;;;;5109721;28;20472;-72
2022/12/28 13:33:33;;;;;;;6.20;3.40;;;;;;;;;;5107765;28;20044;-73
2022/12/28 13:36:05;;;;;;;6.47;3.33;;;;;;;;;;5111176;28;20036;-71
2022/12/28 13:38:31;;;;;;;8.20;3.45;;;;;;;;;;5111425;28;20036;-72
2022/12/28 13:40:58;;;;;;;6.43;3.55;;;;;;;;;;5108781;28;20044;-70
2022/12/28 13:43:42;;;;;;;7.53;3.15;;;;;;;;;;5113312;28;20044;-71
2022/12/28 13:46:11;;;;;;;7.60;3.20;;;;;;;;;;5106906;28;20408;-74
2022/12/28 13:48:40;;;;;;;6.45;3.13;;;;;;;;;;5113460;28;20039;-71
2022/12/28 13:51:11;;;;;;;7.20;2.83;;;;;;;;;;5107769;28;20501;-73
2022/12/28 13:53:37;;;;;;;6.07;3.15;;;;;;;;;;5115675;27;20089;-72
2022/12/28 13:56:06;;;;;;;5.38;2.75;;;;;;;;;;5107605;28;20078;-76
2022/12/28 13:58:34;;;;;;;6.40;2.20;;;;;;;;;;5102646;28;20055;-71
2022/12/28 14:01:01;;;;;;;6.38;2.83;;;;;;;;;;5107449;27;20073;-73
2022/12/28 14:03:28;;;;;;;5.10;2.45;;;;;;;;;;5112158;28;20052;-74
2022/12/28 14:05:58;;;;;;;5.60;2.90;;;;;;;;;;5113551;28;20413;-70
2022/12/28 14:08:25;;;;;;;6.70;2.92;;;;;;;;;;5110492;28;20143;-73
2022/12/28 14:10:52;;;;;;;7.05;2.17;;;;;;;;;;5109151;28;20096;-73
2022/12/28 14:13:18;;;;;;;4.57;2.22;;;;;;;;;;5114091;28;20043;-71
2022/12/28 14:15:45;;;;;;;5.30;2.22;;;;;;;;;;5109848;28;20050;-71
2022/12/28 14:18:15;;;;;;;5.72;2.22;;;;;;;;;;5112808;28;20465;-74
2022/12/28 14:21:00;;;;;;;4.68;2.35;;;;;;;;;;5114817;27;20040;-72
2022/12/28 14:23:30;;;;;;;6.03;2.42;;;;;;;;;;5111248;28;20052;-73
2022/12/28 14:25:57;;;;;;;4.60;2.53;;;;;;;;;;5105902;28;20069;-71
2022/12/28 14:28:26;;;;;;;5.07;2.63;;;;;;;;;;5113922;28;20059;-71
2022/12/28 14:30:53;;;;;;;4.97;2.75;;;;;;;;;;5114551;28;20035;-71
2022/12/28 14:33:26;;;;;;;5.35;3.00;;;;;;;;;;5111624;27;20482;-72
2022/12/28 14:35:54;;;;;;;6.45;2.80;;;;;;;;;;5114052;28;20123;-73
2022/12/28 14:38:22;;;;;;;6.80;2.58;;;;;;;;;;5113691;27;20051;-71
2022/12/28 14:40:55;;;;;;;8.93;2.90;;;;;;;;;;5110731;28;20406;-73
2022/12/28 14:43:32;;;;;;;6.07;2.80;;;;;;;;;;5112865;28;20390;-72
2022/12/28 14:46:13;;;;;;;6.35;2.92;;;;;;;;;;5112548;27;20039;-73
2022/12/28 14:48:40;;;;;;;7.40;3.50;;;;;;;;;;5113545;28;20066;-73
2022/12/28 14:51:16;;;;;;;5.70;3.00;;;;;;;;;;5109900;28;20124;-70
2022/12/28 14:53:42;;;;;;;6.22;3.25;;;;;;;;;;5104769;28;20044;-71
2022/12/28 14:56:16;;;;;;;6.85;3.45;;;;;;;;;;5107143;28;20043;-75
2022/12/28 14:58:53;;;;;;;7.32;3.60;;;;;;;;;;5110271;28;20036;-71
2022/12/28 15:01:19;;;;;;;9.85;3.85;;;;;;;;;;5108839;27;20051;-71
2022/12/28 15:03:53;;;;;;;8.23;3.97;;;;;;;;;;5106860;27;20476;-71
2022/12/28 15:06:20;;;;;;;8.70;4.00;;;;;;;;;;5109057;27;20566;-70
2022/12/28 15:08:47;;;;;;;9.75;5.35;;;;;;;;;;5104812;27;20046;-70
2022/12/28 15:11:13;;;;;;;17.50;13.82;;;;;;;;;;5113537;28;20047;-71
2022/12/28 15:13:39;;;;;;;16.30;10.55;;;;;;;;;;5111096;28;20040;-70